Troutlake, Washington
Current Conditions -  °F | °C
As of 8:59 AM on Saturday 20 Dec 2014 (Local Time) from K4S2 Reporting Station
Moderate Rain Moderate Rain  
Wind Chill: 41°   Ceiling: 700
Heat Index: 41°   Visibility: 3mi
Dew Point: 39°   Wind: 0mph
Humidity: 93%   Direction: NA
Pressure: 29.79"   Gusts: NA
Location:  45.9895°N, 121.531°W
Report Text: K4S2 201659Z AUTO 00000KT 3SM RA SCT002 BKN007 OVC014 05/04 A2979 RMK AO2 P0005 SLP102 T00500040
Loading
Personal Weather Stations






























Interactive Weather Map New forecast layout! Learn more

10-Day Weather Forecast

Advertisements
Track Severe Weather on mobile